Natividade, Brazil
Current Conditions -  °F | °C
As of 12:00 PM on Wednesday 22 Oct 2014 (Local Time) from SBPJ Reporting Station
Rain Showers Rain Showers  
Wind Chill: 81°   Ceiling: 7000
Heat Index: 84°   Visibility: 6mi
Dew Point: 70°   Wind: 8mph
Humidity: 70%   Direction: 180°S
Pressure: NA   Gusts: NA
Location:  11.7°S, 47.76°W
Report Text: SBPJ 221500Z 18007KT 9999 VCSH SCT020 FEW040TCU BKN070 27/21 Q1014
Loading
Personal Weather Stations






























Interactive Weather Map
Tropical Storm Tracking
New forecast layout! Learn more

10-Day Weather Forecast

Advertisements
Track Severe Weather on mobile